createdAt,value
2017-11-13T00:00:45.906Z,5.7
2017-11-13T00:01:45.899Z,5.84
2017-11-13T00:02:45.562Z,5.8
2017-11-13T00:03:45.552Z,5.83
2017-11-13T00:04:45.864Z,5.92
2017-11-13T00:05:45.531Z,5.88
2017-11-13T00:06:45.863Z,5.84
2017-11-13T00:07:45.837Z,5.94
2017-11-13T00:08:45.827Z,5.9
2017-11-13T00:09:45.914Z,5.87
2017-11-13T00:10:45.809Z,5.84
2017-11-13T00:11:45.798Z,5.95
2017-11-13T00:12:45.790Z,5.98
2017-11-13T00:13:45.778Z,5.94
2017-11-13T00:14:45.441Z,5.95
2017-11-13T00:15:45.539Z,5.94
2017-11-13T00:16:45.855Z,6.01
2017-11-13T00:17:45.739Z,5.98
2017-11-13T00:18:45.405Z,5.92
2017-11-13T00:19:45.721Z,5.97
2017-11-13T00:20:45.385Z,5.98
2017-11-13T00:21:45.698Z,5.91
2017-11-13T00:22:45.687Z,5.98
2017-11-13T00:23:45.687Z,6.01
2017-11-13T00:24:45.347Z,6.09
2017-11-13T00:25:45.667Z,6.1
2017-11-13T00:26:45.429Z,6.13
2017-11-13T00:27:45.645Z,6.1
2017-11-13T00:28:45.326Z,6.07
2017-11-13T00:29:45.299Z,6.02
2017-11-13T00:30:45.615Z,6.09
2017-11-13T00:31:45.284Z,6.09
2017-11-13T00:32:44.945Z,6.13
2017-11-13T00:33:45.603Z,6.09
2017-11-13T00:34:45.353Z,6.05
2017-11-13T00:35:45.565Z,6.05
2017-11-13T00:36:45.229Z,6.12
2017-11-13T00:37:45.224Z,6.07
2017-11-13T00:38:45.539Z,6.12
2017-11-13T00:39:45.631Z,6.13
2017-11-13T00:40:45.523Z,6.12
2017-11-13T00:41:45.189Z,5.99
2017-11-13T00:42:45.173Z,6.01
2017-11-13T00:43:45.164Z,5.94
2017-11-13T00:44:45.505Z,5.97
2017-11-13T00:45:45.473Z,5.99
2017-11-13T00:46:45.467Z,5.95
2017-11-13T00:47:45.450Z,5.87
2017-11-13T00:48:44.793Z,5.92
2017-11-13T00:49:45.533Z,5.95
2017-11-13T00:50:45.423Z,5.92
2017-11-13T00:51:45.419Z,5.99
2017-11-13T00:52:45.407Z,5.95
2017-11-13T00:53:45.392Z,6.01
2017-11-13T00:54:45.382Z,5.91
2017-11-13T00:55:45.377Z,5.98
2017-11-13T00:56:45.137Z,5.98
2017-11-13T00:57:45.355Z,5.87
2017-11-13T00:58:45.023Z,5.94
2017-11-13T00:59:45.336Z,5.91
2017-11-13T01:00:45.330Z,5.9
2017-11-13T01:01:44.989Z,5.83
2017-11-13T01:02:45.307Z,5.83
2017-11-13T01:03:45.308Z,5.87
2017-11-13T01:04:45.310Z,5.81
2017-11-13T01:05:45.279Z,5.84
2017-11-13T01:06:45.270Z,5.8
2017-11-13T01:07:44.935Z,5.73
2017-11-13T01:08:45.246Z,5.62
2017-11-13T01:09:45.243Z,5.58
2017-11-13T01:10:45.231Z,5.55
2017-11-13T01:11:45.237Z,5.56
2017-11-13T01:12:45.210Z,5.47
2017-11-13T01:13:44.879Z,5.47
2017-11-13T01:14:45.200Z,5.49
2017-11-13T01:15:45.184Z,5.49
2017-11-13T01:16:45.170Z,5.43
2017-11-13T01:17:44.840Z,5.4
2017-11-13T01:18:44.827Z,5.46
2017-11-13T01:19:45.147Z,5.46
2017-11-13T01:20:45.135Z,5.34
2017-11-13T01:21:44.797Z,5.47
2017-11-13T01:22:45.222Z,5.33
2017-11-13T01:23:45.104Z,5.29
2017-11-13T01:24:45.100Z,5.28
2017-11-13T01:25:44.861Z,5.29
2017-11-13T01:26:45.075Z,5.34
2017-11-13T01:27:45.069Z,5.29
2017-11-13T01:28:44.733Z,5.37
2017-11-13T01:29:45.148Z,5.37
2017-11-13T01:30:44.713Z,5.29
2017-11-13T01:31:45.024Z,5.4
2017-11-13T01:32:45.020Z,5.4
2017-11-13T01:33:45.009Z,5.4
2017-11-13T01:34:44.683Z,5.36
2017-11-13T01:35:44.661Z,5.4
2017-11-13T01:36:44.983Z,5.37
2017-11-13T01:37:44.316Z,5.49
2017-11-13T01:38:44.955Z,5.56
2017-11-13T01:39:44.950Z,5.55
2017-11-13T01:40:44.936Z,5.41
2017-11-13T01:41:44.622Z,5.38
2017-11-13T01:42:44.923Z,5.15
2017-11-13T01:43:45.109Z,5.19
2017-11-13T01:44:44.903Z,5.15
2017-11-13T01:45:44.888Z,5.08
2017-11-13T01:46:44.556Z,5.05
2017-11-13T01:47:44.972Z,4.95
2017-11-13T01:48:44.876Z,4.94
2017-11-13T01:49:44.851Z,4.94
2017-11-13T01:50:44.945Z,4.89
2017-11-13T01:51:44.507Z,4.78
2017-11-13T01:52:44.504Z,4.7
2017-11-13T01:53:44.486Z,4.71
2017-11-13T01:54:44.805Z,4.7
2017-11-13T01:55:44.796Z,4.66
2017-11-13T01:56:44.791Z,4.66
2017-11-13T01:57:44.781Z,4.58
2017-11-13T01:58:44.766Z,4.6
2017-11-13T01:59:44.752Z,4.68
2017-11-13T02:00:44.745Z,4.61
2017-11-13T02:01:44.836Z,4.6
2017-11-13T02:02:44.733Z,4.57
2017-11-13T02:03:44.728Z,4.61
2017-11-13T02:04:44.715Z,4.64
2017-11-13T02:05:44.697Z,4.7
2017-11-13T02:06:44.373Z,4.76
2017-11-13T02:07:44.680Z,4.66
2017-11-13T02:08:44.667Z,4.68
2017-11-13T02:09:44.437Z,4.67
2017-11-13T02:10:44.323Z,4.6
2017-11-13T02:11:44.649Z,4.67
2017-11-13T02:12:44.315Z,4.63
2017-11-13T02:13:44.627Z,4.68
2017-11-13T02:14:44.618Z,4.67
2017-11-13T02:15:44.599Z,4.57
2017-11-13T02:16:44.595Z,4.56
2017-11-13T02:17:44.589Z,4.45
2017-11-13T02:18:44.586Z,4.5
2017-11-13T02:19:44.665Z,4.46
2017-11-13T02:20:44.332Z,4.42
2017-11-13T02:21:44.556Z,4.48
2017-11-13T02:22:44.532Z,4.53
2017-11-13T02:23:44.524Z,4.5
2017-11-13T02:24:44.209Z,4.6
2017-11-13T02:25:44.503Z,4.67
2017-11-13T02:26:43.945Z,4.67
2017-11-13T02:27:44.488Z,4.68
2017-11-13T02:28:44.481Z,4.68
2017-11-13T02:29:44.140Z,4.74
2017-11-13T02:30:44.461Z,4.76
2017-11-13T02:31:44.445Z,4.71
2017-11-13T02:32:44.442Z,4.66
2017-11-13T02:33:44.433Z,4.6
2017-11-13T02:34:44.414Z,4.68
2017-11-13T02:35:44.083Z,4.7
2017-11-13T02:36:44.395Z,4.67
2017-11-13T02:37:44.402Z,4.68
2017-11-13T02:38:44.498Z,4.82
2017-11-13T02:39:44.370Z,4.78
2017-11-13T02:40:44.032Z,4.79
2017-11-13T02:41:44.449Z,4.95
2017-11-13T02:42:44.343Z,5.01
2017-11-13T02:43:44.125Z,5
2017-11-13T02:44:44.323Z,5.01
2017-11-13T02:45:43.985Z,5.01
2017-11-13T02:46:44.298Z,4.95
2017-11-13T02:47:44.287Z,5.02
2017-11-13T02:48:43.953Z,5.04
2017-11-13T02:49:44.291Z,5.02
2017-11-13T02:50:44.262Z,5.08
2017-11-13T02:51:44.026Z,5.07
2017-11-13T02:52:44.363Z,5.13
2017-11-13T02:53:44.254Z,5
2017-11-13T02:54:43.568Z,5.04
2017-11-13T02:55:44.210Z,5.07
2017-11-13T02:56:44.209Z,5.04
2017-11-13T02:57:43.986Z,5.05
2017-11-13T02:58:44.243Z,5.05
2017-11-13T02:59:43.945Z,5.04
2017-11-13T03:00:44.172Z,4.95
2017-11-13T03:01:44.161Z,4.97
2017-11-13T03:02:44.146Z,4.9
2017-11-13T03:03:43.807Z,4.9
2017-11-13T03:04:44.224Z,4.94
2017-11-13T03:05:43.791Z,4.94
2017-11-13T03:06:44.204Z,4.89
2017-11-13T03:07:43.767Z,4.94
2017-11-13T03:08:43.757Z,4.76
2017-11-13T03:09:44.078Z,4.66
2017-11-13T03:10:44.062Z,4.71
2017-11-13T03:11:44.055Z,4.67
2017-11-13T03:12:44.043Z,4.7
2017-11-13T03:13:44.031Z,4.68
2017-11-13T03:14:44.021Z,4.7
2017-11-13T03:15:44.025Z,4.75
2017-11-13T03:16:44.011Z,4.64
2017-11-13T03:17:43.666Z,4.75
2017-11-13T03:18:43.988Z,4.74
2017-11-13T03:19:43.978Z,4.6
2017-11-13T03:20:43.641Z,4.61
2017-11-13T03:21:43.952Z,4.57
2017-11-13T03:22:43.624Z,4.56
2017-11-13T03:23:43.931Z,4.57
2017-11-13T03:24:43.615Z,4.43
2017-11-13T03:25:43.916Z,4.49
2017-11-13T03:26:43.902Z,4.4
2017-11-13T03:27:43.570Z,4.38
2017-11-13T03:28:43.886Z,4.38
2017-11-13T03:29:43.574Z,4.38
2017-11-13T03:30:43.895Z,4.39
2017-11-13T03:31:43.874Z,4.28
2017-11-13T03:32:43.519Z,4.25
2017-11-13T03:33:43.844Z,4.32
2017-11-13T03:34:43.828Z,4.22
2017-11-13T03:35:43.830Z,4.36
2017-11-13T03:36:43.813Z,4.36
2017-11-13T03:37:43.802Z,4.43
2017-11-13T03:38:43.458Z,4.49
2017-11-13T03:39:43.777Z,4.52
2017-11-13T03:40:43.867Z,4.5
2017-11-13T03:41:43.753Z,4.57
2017-11-13T03:42:43.751Z,4.58
2017-11-13T03:43:43.748Z,4.63
2017-11-13T03:44:43.401Z,4.64
2017-11-13T03:45:43.729Z,4.57
2017-11-13T03:46:43.712Z,4.71
2017-11-13T03:47:43.699Z,4.67
2017-11-13T03:48:43.692Z,4.66
2017-11-13T03:49:43.692Z,4.71
2017-11-13T03:50:43.771Z,4.61
2017-11-13T03:51:43.656Z,4.66
2017-11-13T03:52:43.646Z,4.61
2017-11-13T03:53:43.643Z,4.67
2017-11-13T03:54:43.726Z,4.71
2017-11-13T03:55:43.619Z,4.75
2017-11-13T03:56:43.611Z,4.75
2017-11-13T03:57:43.272Z,4.84
2017-11-13T03:58:43.262Z,4.79
2017-11-13T03:59:43.259Z,4.71
2017-11-13T04:00:43.573Z,4.76
2017-11-13T04:01:43.560Z,4.78
2017-11-13T04:02:43.546Z,4.82
2017-11-13T04:03:43.537Z,4.86
2017-11-13T04:04:43.532Z,4.9
2017-11-13T04:05:43.521Z,4.89
2017-11-13T04:06:43.605Z,4.71
2017-11-13T04:07:43.494Z,4.78
2017-11-13T04:08:43.258Z,4.82
2017-11-13T04:09:43.150Z,4.82
2017-11-13T04:10:43.468Z,4.82
2017-11-13T04:11:43.138Z,4.78
2017-11-13T04:12:43.457Z,4.7
2017-11-13T04:13:43.535Z,4.78
2017-11-13T04:14:43.107Z,4.78
2017-11-13T04:15:43.430Z,4.64
2017-11-13T04:16:43.413Z,4.74
2017-11-13T04:17:43.074Z,4.83
2017-11-13T04:18:42.736Z,4.82
2017-11-13T04:19:43.475Z,4.74
2017-11-13T04:20:43.375Z,4.78
2017-11-13T04:21:43.030Z,4.79
2017-11-13T04:22:43.347Z,4.82
2017-11-13T04:23:43.440Z,4.86
2017-11-13T04:24:43.328Z,4.83
2017-11-13T04:25:43.314Z,4.82
2017-11-13T04:26:43.311Z,4.9
2017-11-13T04:27:43.305Z,4.84
2017-11-13T04:28:43.297Z,4.92
2017-11-13T04:29:43.282Z,4.9
2017-11-13T04:30:42.942Z,4.78
2017-11-13T04:31:42.932Z,4.84
2017-11-13T04:32:42.923Z,4.82
2017-11-13T04:33:42.914Z,4.82
2017-11-13T04:34:42.910Z,4.83
2017-11-13T04:35:42.914Z,4.75
2017-11-13T04:36:43.210Z,4.74
2017-11-13T04:37:43.199Z,4.84
2017-11-13T04:38:42.867Z,4.82
2017-11-13T04:39:42.959Z,4.82
2017-11-13T04:40:43.173Z,4.78
2017-11-13T04:41:42.829Z,4.82
2017-11-13T04:42:43.147Z,4.75
2017-11-13T04:43:43.141Z,4.79
2017-11-13T04:44:42.812Z,4.79
2017-11-13T04:45:43.255Z,4.74
2017-11-13T04:46:43.112Z,4.68
2017-11-13T04:47:43.096Z,4.66
2017-11-13T04:48:43.194Z,4.71
2017-11-13T04:49:42.753Z,4.74
2017-11-13T04:50:43.075Z,4.71
2017-11-13T04:51:43.062Z,4.74
2017-11-13T04:52:42.498Z,4.76
2017-11-13T04:53:43.040Z,4.7
2017-11-13T04:54:43.040Z,4.71
2017-11-13T04:55:43.021Z,4.68
2017-11-13T04:56:42.688Z,4.78
2017-11-13T04:57:43.001Z,4.75
2017-11-13T04:58:43.020Z,4.79
2017-11-13T04:59:42.987Z,4.78
2017-11-13T05:00:42.971Z,4.79
2017-11-13T05:01:42.977Z,4.71
2017-11-13T05:02:42.958Z,4.75
2017-11-13T05:03:42.617Z,4.76
2017-11-13T05:04:42.932Z,4.64
2017-11-13T05:05:42.600Z,4.71
2017-11-13T05:06:42.913Z,4.83
2017-11-13T05:07:42.916Z,4.82
2017-11-13T05:08:42.568Z,4.66
2017-11-13T05:09:42.559Z,4.64
2017-11-13T05:10:42.544Z,4.6
2017-11-13T05:11:42.529Z,4.71
2017-11-13T05:12:42.951Z,4.74
2017-11-13T05:13:42.846Z,4.7
2017-11-13T05:14:42.506Z,4.67
2017-11-13T05:15:42.825Z,4.74
2017-11-13T05:16:42.822Z,4.63
2017-11-13T05:17:42.803Z,4.75
2017-11-13T05:18:42.989Z,4.66
2017-11-13T05:19:42.458Z,4.7
2017-11-13T05:20:42.773Z,4.68
2017-11-13T05:21:42.761Z,4.74
2017-11-13T05:22:42.857Z,4.67
2017-11-13T05:23:42.745Z,4.71
2017-11-13T05:24:42.835Z,4.66
2017-11-13T05:25:42.725Z,4.7
2017-11-13T05:26:42.722Z,4.71
2017-11-13T05:27:42.806Z,4.71
2017-11-13T05:28:42.371Z,4.75
2017-11-13T05:29:42.685Z,4.57
2017-11-13T05:30:42.681Z,4.64
2017-11-13T05:31:42.670Z,4.58
2017-11-13T05:32:42.760Z,4.64
2017-11-13T05:33:42.651Z,4.6
2017-11-13T05:34:42.634Z,4.53
2017-11-13T05:35:42.638Z,4.56
2017-11-13T05:36:42.615Z,4.56
2017-11-13T05:37:42.276Z,4.53
2017-11-13T05:38:42.595Z,4.46
2017-11-13T05:39:42.591Z,4.52
2017-11-13T05:40:42.252Z,4.39
2017-11-13T05:41:42.678Z,4.42
2017-11-13T05:42:42.557Z,4.34
2017-11-13T05:43:42.543Z,4.34
2017-11-13T05:44:42.204Z,4.38
2017-11-13T05:45:42.525Z,4.4
2017-11-13T05:46:42.523Z,4.21
2017-11-13T05:47:42.502Z,4.24
2017-11-13T05:48:42.172Z,4.3
2017-11-13T05:49:42.597Z,4.2
2017-11-13T05:50:42.151Z,4.22
2017-11-13T05:51:42.465Z,4.21
2017-11-13T05:52:42.134Z,4.28
2017-11-13T05:53:42.126Z,4.21
2017-11-13T05:54:42.435Z,4.24
2017-11-13T05:55:42.195Z,4.32
2017-11-13T05:56:42.090Z,4.25
2017-11-13T05:57:42.407Z,4.32
2017-11-13T05:58:42.393Z,4.34
2017-11-13T05:59:42.156Z,4.32
2017-11-13T06:00:42.042Z,4.25
2017-11-13T06:01:42.356Z,4.34
2017-11-13T06:02:42.349Z,4.36
2017-11-13T06:03:42.345Z,4.39
2017-11-13T06:04:42.001Z,4.43
2017-11-13T06:05:42.316Z,4.42
2017-11-13T06:06:42.406Z,4.43
2017-11-13T06:07:41.974Z,4.43
2017-11-13T06:08:42.295Z,4.34
2017-11-13T06:09:42.279Z,4.45
2017-11-13T06:10:41.944Z,4.52
2017-11-13T06:11:42.359Z,4.57
2017-11-13T06:12:42.354Z,4.56
2017-11-13T06:13:41.919Z,4.58
2017-11-13T06:14:41.909Z,4.58
2017-11-13T06:15:41.898Z,4.58
2017-11-13T06:16:41.981Z,4.57
2017-11-13T06:17:41.874Z,4.63
2017-11-13T06:18:42.197Z,4.57
2017-11-13T06:19:42.279Z,4.58
2017-11-13T06:20:41.842Z,4.61
2017-11-13T06:21:41.840Z,4.58
2017-11-13T06:22:42.161Z,4.58
2017-11-13T06:23:42.154Z,4.57
2017-11-13T06:24:41.809Z,4.6
2017-11-13T06:25:41.791Z,4.53
2017-11-13T06:26:42.112Z,4.57
2017-11-13T06:27:41.770Z,4.61
2017-11-13T06:28:41.861Z,4.75
2017-11-13T06:29:42.076Z,4.7
2017-11-13T06:30:41.743Z,4.71
2017-11-13T06:31:41.409Z,4.82
2017-11-13T06:32:42.049Z,4.75
2017-11-13T06:33:42.039Z,4.89
2017-11-13T06:34:42.026Z,4.82
2017-11-13T06:35:41.693Z,4.9
2017-11-13T06:36:41.685Z,4.94
2017-11-13T06:37:41.670Z,4.98
2017-11-13T06:38:42.042Z,5.02
2017-11-13T06:39:41.651Z,5.05
2017-11-13T06:40:41.969Z,5
2017-11-13T06:41:41.733Z,5.07
2017-11-13T06:42:41.721Z,5.12
2017-11-13T06:43:41.285Z,5.16
2017-11-13T06:44:41.934Z,5.07
2017-11-13T06:45:41.933Z,5.13
2017-11-13T06:46:41.905Z,5.18
2017-11-13T06:47:41.996Z,5.18
2017-11-13T06:48:41.891Z,5.22
2017-11-13T06:49:41.555Z,5.16
2017-11-13T06:50:41.869Z,5.05
2017-11-13T06:51:41.534Z,5.13
2017-11-13T06:52:41.849Z,5.07
2017-11-13T06:53:41.835Z,5.07
2017-11-13T06:54:41.835Z,5.12
2017-11-13T06:55:41.818Z,5.2
2017-11-13T06:56:41.810Z,5.22
2017-11-13T06:57:41.899Z,5.2
2017-11-13T06:58:41.462Z,5.28
2017-11-13T06:59:41.126Z,5.25
2017-11-13T07:00:41.778Z,5.29
2017-11-13T07:01:41.530Z,5.23
2017-11-13T07:02:41.744Z,5.26
2017-11-13T07:03:41.406Z,5.22
2017-11-13T07:04:41.750Z,5.23
2017-11-13T07:05:41.713Z,5.2
2017-11-13T07:06:41.704Z,5.18
2017-11-13T07:07:41.690Z,5.19
2017-11-13T07:08:41.354Z,5.16
2017-11-13T07:09:41.344Z,5.25
2017-11-13T07:10:41.761Z,5.22
2017-11-13T07:11:41.326Z,5.23
2017-11-13T07:12:41.316Z,5.28
2017-11-13T07:13:41.640Z,5.29
2017-11-13T07:14:41.616Z,5.26
2017-11-13T07:15:41.709Z,5.18
2017-11-13T07:16:41.606Z,5.23
2017-11-13T07:17:41.363Z,5.2
2017-11-13T07:18:41.586Z,5.22
2017-11-13T07:19:41.570Z,5.16
2017-11-13T07:20:41.557Z,5.18
2017-11-13T07:21:41.552Z,5.08
2017-11-13T07:22:41.534Z,5.15
2017-11-13T07:23:41.208Z,5.18
2017-11-13T07:24:41.525Z,5.2
2017-11-13T07:25:41.286Z,5.1
2017-11-13T07:26:41.504Z,5.18
2017-11-13T07:27:41.491Z,5.12
2017-11-13T07:28:41.477Z,5.19
2017-11-13T07:29:41.246Z,5.12
2017-11-13T07:30:41.458Z,5.08
2017-11-13T07:31:41.450Z,5.05
2017-11-13T07:32:41.438Z,5.1
2017-11-13T07:33:41.435Z,5.1
2017-11-13T07:34:41.430Z,5.01
2017-11-13T07:35:41.419Z,5.02
2017-11-13T07:36:41.400Z,4.98
2017-11-13T07:37:41.386Z,5.04
2017-11-13T07:38:41.384Z,5.01
2017-11-13T07:39:41.047Z,4.9
2017-11-13T07:40:41.363Z,4.9
2017-11-13T07:41:41.353Z,4.89
2017-11-13T07:42:40.789Z,4.82
2017-11-13T07:43:41.107Z,4.75
2017-11-13T07:44:41.320Z,4.78
2017-11-13T07:45:41.314Z,4.79
2017-11-13T07:46:41.409Z,4.74
2017-11-13T07:47:41.286Z,4.74
2017-11-13T07:48:41.287Z,4.71
2017-11-13T07:49:41.269Z,4.84
2017-11-13T07:50:41.265Z,4.75
2017-11-13T07:51:41.361Z,4.82
2017-11-13T07:52:41.252Z,4.83
2017-11-13T07:53:41.228Z,4.84
2017-11-13T07:54:41.218Z,4.71
2017-11-13T07:55:41.212Z,4.68
2017-11-13T07:56:41.203Z,4.7
2017-11-13T07:57:40.887Z,4.7
2017-11-13T07:58:40.864Z,4.66
2017-11-13T07:59:41.170Z,4.67
2017-11-13T08:00:41.259Z,4.68
2017-11-13T08:01:40.832Z,4.7
2017-11-13T08:02:40.815Z,4.67
2017-11-13T08:03:41.135Z,4.68
2017-11-13T08:04:41.121Z,4.66
2017-11-13T08:05:41.107Z,4.71
2017-11-13T08:06:41.208Z,4.68
2017-11-13T08:07:41.091Z,4.76
2017-11-13T08:08:41.079Z,4.64
2017-11-13T08:09:41.068Z,4.68
2017-11-13T08:10:41.064Z,4.67
2017-11-13T08:11:41.185Z,4.78
2017-11-13T08:12:41.036Z,4.74
2017-11-13T08:13:40.704Z,4.76
2017-11-13T08:14:41.023Z,4.78
2017-11-13T08:15:40.682Z,4.74
2017-11-13T08:16:40.672Z,4.78
2017-11-13T08:17:40.686Z,4.9
2017-11-13T08:18:40.983Z,4.84
2017-11-13T08:19:40.964Z,4.92
2017-11-13T08:20:40.639Z,5.01
2017-11-13T08:21:40.948Z,4.9
2017-11-13T08:22:40.937Z,5
2017-11-13T08:23:40.281Z,4.9
2017-11-13T08:24:40.593Z,4.98
2017-11-13T08:25:40.588Z,4.87
2017-11-13T08:26:40.898Z,4.94
2017-11-13T08:27:40.890Z,4.97
2017-11-13T08:28:40.558Z,4.84
2017-11-13T08:29:40.873Z,4.94
2017-11-13T08:30:40.544Z,4.92
2017-11-13T08:31:40.852Z,4.95
2017-11-13T08:32:40.513Z,4.94
2017-11-13T08:33:40.848Z,4.9
2017-11-13T08:34:40.924Z,4.89
2017-11-13T08:35:40.490Z,4.89
2017-11-13T08:36:40.469Z,4.82
2017-11-13T08:37:40.888Z,4.92
2017-11-13T08:38:40.781Z,4.9
2017-11-13T08:39:40.455Z,5.01
2017-11-13T08:40:40.437Z,5
2017-11-13T08:41:40.748Z,5.01
2017-11-13T08:42:40.839Z,5.04
2017-11-13T08:43:40.730Z,5.15
2017-11-13T08:44:40.405Z,5.02
2017-11-13T08:45:40.713Z,5.13
2017-11-13T08:46:40.048Z,5.18
2017-11-13T08:47:40.789Z,5.2
2017-11-13T08:48:40.695Z,5.2
2017-11-13T08:49:40.768Z,5.25
2017-11-13T08:50:40.661Z,5.34
2017-11-13T08:51:40.325Z,5.34
2017-11-13T08:52:40.640Z,5.43
2017-11-13T08:53:40.304Z,5.38
2017-11-13T08:54:40.294Z,5.44
2017-11-13T08:55:40.281Z,5.4
2017-11-13T08:56:40.601Z,5.49
2017-11-13T08:57:40.636Z,5.41
2017-11-13T08:58:40.251Z,5.46
2017-11-13T08:59:40.245Z,5.49
2017-11-13T09:00:40.553Z,5.61
2017-11-13T09:01:40.232Z,5.62
2017-11-13T09:02:40.219Z,5.59
2017-11-13T09:03:40.534Z,5.7
2017-11-13T09:04:40.524Z,5.67
2017-11-13T09:05:40.515Z,5.7
2017-11-13T09:06:40.273Z,5.83
2017-11-13T09:07:40.166Z,5.79
2017-11-13T09:08:39.837Z,5.79
2017-11-13T09:09:40.468Z,5.74
2017-11-13T09:10:40.142Z,5.87
2017-11-13T09:11:39.802Z,5.77
2017-11-13T09:12:40.114Z,5.77
2017-11-13T09:13:40.109Z,5.87
2017-11-13T09:14:40.417Z,5.81
2017-11-13T09:15:40.409Z,5.81
2017-11-13T09:16:40.398Z,5.83
2017-11-13T09:17:40.395Z,5.95
2017-11-13T09:18:40.382Z,5.88
2017-11-13T09:19:40.477Z,5.87
2017-11-13T09:20:40.381Z,5.91
2017-11-13T09:21:40.391Z,5.91
2017-11-13T09:22:40.345Z,5.94
2017-11-13T09:23:40.332Z,5.98
2017-11-13T09:24:39.997Z,5.97
2017-11-13T09:25:40.319Z,5.99
2017-11-13T09:26:40.079Z,5.94
2017-11-13T09:27:40.289Z,5.91
2017-11-13T09:28:40.290Z,5.98
2017-11-13T09:29:39.945Z,5.95
2017-11-13T09:30:40.275Z,5.95
2017-11-13T09:31:40.282Z,6.02
2017-11-13T09:32:40.238Z,5.95
2017-11-13T09:33:40.236Z,5.83
2017-11-13T09:34:40.223Z,5.8
2017-11-13T09:35:40.211Z,5.73
2017-11-13T09:36:39.874Z,5.84
2017-11-13T09:37:39.882Z,5.81
2017-11-13T09:38:39.864Z,5.87
2017-11-13T09:39:39.845Z,5.87
2017-11-13T09:40:39.835Z,5.98
2017-11-13T09:41:39.829Z,5.91
2017-11-13T09:42:40.144Z,6.13
2017-11-13T09:43:40.132Z,6.13
2017-11-13T09:44:40.221Z,6.2
2017-11-13T09:45:40.109Z,6.29
2017-11-13T09:46:39.777Z,6.32
2017-11-13T09:47:40.099Z,6.22
2017-11-13T09:48:40.081Z,6.2
2017-11-13T09:49:40.079Z,6.17
2017-11-13T09:50:40.063Z,6.12
2017-11-13T09:51:39.826Z,6.15
2017-11-13T09:52:40.043Z,6.1
2017-11-13T09:53:40.031Z,6.07
2017-11-13T09:54:40.019Z,6.12
2017-11-13T09:55:40.025Z,6.15
2017-11-13T09:56:40.104Z,6.13
2017-11-13T09:57:40.089Z,6.15
2017-11-13T09:58:39.990Z,5.98
2017-11-13T09:59:39.978Z,6.16
2017-11-13T10:00:39.969Z,6.26
2017-11-13T10:01:39.975Z,6.31
2017-11-13T10:02:39.616Z,6.32
2017-11-13T10:03:39.941Z,6.38
2017-11-13T10:04:39.920Z,6.32
2017-11-13T10:05:39.920Z,6.29
2017-11-13T10:06:39.577Z,6.34
2017-11-13T10:07:39.898Z,6.31
2017-11-13T10:08:39.566Z,6.25
2017-11-13T10:09:39.882Z,6.32
2017-11-13T10:10:39.545Z,6.34
2017-11-13T10:11:39.851Z,6.31
2017-11-13T10:12:39.847Z,6.34
2017-11-13T10:13:39.835Z,6.34
2017-11-13T10:14:39.837Z,6.36
2017-11-13T10:15:39.814Z,6.5
2017-11-13T10:16:39.806Z,6.47
2017-11-13T10:17:39.994Z,6.47
2017-11-13T10:18:39.788Z,6.43
2017-11-13T10:19:39.785Z,6.38
2017-11-13T10:20:39.763Z,6.39
2017-11-13T10:21:39.102Z,6.36
2017-11-13T10:22:39.756Z,6.39
2017-11-13T10:23:39.778Z,6.38
2017-11-13T10:24:39.720Z,6.35
2017-11-13T10:25:39.396Z,6.39
2017-11-13T10:26:39.700Z,6.41
2017-11-13T10:27:39.692Z,6.41
2017-11-13T10:28:39.784Z,6.38
2017-11-13T10:29:39.380Z,6.47
2017-11-13T10:30:39.671Z,6.5
2017-11-13T10:31:39.430Z,6.52
2017-11-13T10:32:39.318Z,6.65
2017-11-13T10:33:39.309Z,6.59
2017-11-13T10:34:39.623Z,6.6
2017-11-13T10:35:39.713Z,6.71
2017-11-13T10:36:39.285Z,6.71
2017-11-13T10:37:39.596Z,6.7
2017-11-13T10:38:39.586Z,6.56
2017-11-13T10:39:39.577Z,6.72
2017-11-13T10:40:39.566Z,6.75
2017-11-13T10:41:39.582Z,6.74
2017-11-13T10:42:39.557Z,6.82
2017-11-13T10:43:39.225Z,6.96
2017-11-13T10:44:39.627Z,6.9
2017-11-13T10:45:39.516Z,7
2017-11-13T10:46:39.514Z,7.11
2017-11-13T10:47:39.507Z,7.1
2017-11-13T10:48:39.594Z,7.14
2017-11-13T10:49:39.483Z,7.21
2017-11-13T10:50:39.470Z,7.25
2017-11-13T10:51:39.459Z,7.22
2017-11-13T10:52:39.460Z,7.32
2017-11-13T10:53:38.788Z,7.29
2017-11-13T10:54:39.434Z,7.36
2017-11-13T10:55:39.420Z,7.32
2017-11-13T10:56:39.407Z,7.31
2017-11-13T10:57:39.501Z,7.25
2017-11-13T10:58:39.395Z,7.29
2017-11-13T10:59:39.385Z,7.33
2017-11-13T11:00:39.378Z,7.37
2017-11-13T11:01:39.037Z,7.37
2017-11-13T11:02:39.458Z,7.29
2017-11-13T11:03:39.115Z,7.28
2017-11-13T11:04:39.007Z,7.15
2017-11-13T11:05:39.327Z,7.1
2017-11-13T11:06:39.313Z,7.03
2017-11-13T11:07:39.304Z,6.89
2017-11-13T11:08:39.400Z,6.77
2017-11-13T11:09:38.962Z,6.72
2017-11-13T11:10:38.969Z,6.62
2017-11-13T11:11:39.260Z,6.49
2017-11-13T11:12:39.353Z,6.54
2017-11-13T11:13:39.261Z,6.53
2017-11-13T11:14:39.239Z,6.54
2017-11-13T11:15:38.901Z,6.52
2017-11-13T11:16:39.215Z,6.49
2017-11-13T11:17:38.880Z,6.5
2017-11-13T11:18:39.196Z,6.59
2017-11-13T11:19:38.963Z,6.67
2017-11-13T11:20:39.210Z,6.65
2017-11-13T11:21:38.841Z,6.71
2017-11-13T11:22:39.202Z,6.74
2017-11-13T11:23:38.818Z,6.77
2017-11-13T11:24:39.345Z,6.86
2017-11-13T11:25:38.797Z,6.78
2017-11-13T11:26:39.143Z,6.8
2017-11-13T11:27:39.113Z,6.83
2017-11-13T11:28:39.096Z,6.92
2017-11-13T11:29:38.536Z,6.89
2017-11-13T11:30:39.078Z,6.87
2017-11-13T11:31:38.416Z,6.89
2017-11-13T11:32:39.055Z,6.89
2017-11-13T11:33:38.722Z,6.87
2017-11-13T11:34:38.813Z,6.85
2017-11-13T11:35:38.808Z,6.89
2017-11-13T11:36:38.367Z,6.9
2017-11-13T11:37:39.006Z,6.89
2017-11-13T11:38:38.995Z,6.83
2017-11-13T11:39:38.988Z,6.78
2017-11-13T11:40:39.078Z,6.77
2017-11-13T11:41:39.072Z,6.71
2017-11-13T11:42:38.310Z,6.78
2017-11-13T11:43:38.949Z,6.85
2017-11-13T11:44:38.943Z,6.82
2017-11-13T11:45:38.703Z,6.95
2017-11-13T11:46:38.919Z,6.93
2017-11-13T11:47:38.588Z,7.03
2017-11-13T11:48:38.576Z,6.96
2017-11-13T11:49:38.885Z,6.95
2017-11-13T11:50:38.890Z,6.9
2017-11-13T11:51:38.872Z,6.87
2017-11-13T11:52:38.537Z,6.89
2017-11-13T11:53:38.848Z,6.95
2017-11-13T11:54:38.839Z,7.03
2017-11-13T11:55:38.937Z,7.07
2017-11-13T11:56:38.819Z,7.07
2017-11-13T11:57:38.847Z,7.05
2017-11-13T11:58:38.474Z,7.11
2017-11-13T11:59:38.790Z,7.21
2017-11-13T12:00:38.454Z,7.26
2017-11-13T12:01:38.120Z,7.31
2017-11-13T12:02:38.536Z,7.39
2017-11-13T12:03:38.750Z,7.44
2017-11-13T12:04:38.741Z,7.58
2017-11-13T12:05:38.409Z,7.59
2017-11-13T12:06:38.398Z,7.53
2017-11-13T12:07:38.712Z,7.67
2017-11-13T12:08:38.380Z,7.74
2017-11-13T12:09:38.685Z,7.75
2017-11-13T12:10:38.678Z,7.75
2017-11-13T12:11:38.345Z,7.7
2017-11-13T12:12:38.340Z,7.59
2017-11-13T12:13:38.329Z,7.56
2017-11-13T12:14:38.644Z,7.61
2017-11-13T12:15:38.637Z,7.46
2017-11-13T12:16:38.299Z,7.47
2017-11-13T12:17:38.612Z,7.46
2017-11-13T12:18:38.382Z,7.5
2017-11-13T12:19:38.271Z,7.48
2017-11-13T12:20:38.592Z,7.47
2017-11-13T12:21:38.575Z,7.37
2017-11-13T12:22:38.569Z,7.31
2017-11-13T12:23:38.561Z,7.18
2017-11-13T12:24:38.564Z,7.08
2017-11-13T12:25:38.534Z,7.05
2017-11-13T12:26:38.533Z,7.13
2017-11-13T12:27:38.515Z,7.07
2017-11-13T12:28:38.183Z,7.07
2017-11-13T12:29:38.498Z,7.07
2017-11-13T12:30:38.491Z,7.14
2017-11-13T12:31:38.580Z,7.21
2017-11-13T12:32:38.145Z,7.21
2017-11-13T12:33:38.458Z,7.28
2017-11-13T12:34:37.806Z,7.22
2017-11-13T12:35:38.447Z,7.47
2017-11-13T12:36:38.566Z,7.46
2017-11-13T12:37:38.425Z,7.56
2017-11-13T12:38:38.411Z,7.58
2017-11-13T12:39:38.412Z,7.72
2017-11-13T12:40:38.392Z,7.67
2017-11-13T12:41:38.060Z,7.8
2017-11-13T12:42:38.372Z,7.83
2017-11-13T12:43:38.373Z,7.83
2017-11-13T12:44:38.351Z,7.87
2017-11-13T12:45:38.344Z,7.83
2017-11-13T12:46:38.336Z,7.83
2017-11-13T12:47:38.008Z,7.78
2017-11-13T12:48:38.095Z,7.83
2017-11-13T12:49:37.980Z,7.78
2017-11-13T12:50:38.308Z,7.8
2017-11-13T12:51:38.283Z,7.67
2017-11-13T12:52:37.960Z,7.78
2017-11-13T12:53:37.941Z,7.61
2017-11-13T12:54:38.263Z,7.51
2017-11-13T12:55:37.920Z,7.46
2017-11-13T12:56:37.915Z,7.48
2017-11-13T12:57:38.225Z,7.39
2017-11-13T12:58:38.223Z,7.46
2017-11-13T12:59:37.892Z,7.41
2017-11-13T13:00:38.204Z,7.41
2017-11-13T13:01:38.187Z,7.51
2017-11-13T13:02:38.196Z,7.46
2017-11-13T13:03:38.169Z,7.48
2017-11-13T13:04:38.158Z,7.56
2017-11-13T13:05:38.152Z,7.61
2017-11-13T13:06:38.146Z,7.64
2017-11-13T13:07:38.132Z,7.67
2017-11-13T13:08:38.230Z,7.72
2017-11-13T13:09:38.121Z,7.69
2017-11-13T13:10:38.108Z,7.53
2017-11-13T13:11:38.099Z,7.53
2017-11-13T13:12:38.080Z,7.62
2017-11-13T13:13:37.762Z,7.59
2017-11-13T13:14:38.059Z,7.56
2017-11-13T13:15:38.059Z,7.69
2017-11-13T13:16:38.143Z,7.74
2017-11-13T13:17:37.718Z,7.85
2017-11-13T13:18:37.717Z,7.75
2017-11-13T13:19:38.125Z,7.81
2017-11-13T13:20:38.016Z,7.8
2017-11-13T13:21:37.999Z,7.74
2017-11-13T13:22:37.985Z,7.69